Time;durP1;ratioP1;P1;durP2;ratioP2;P2;SDS_P1;SDS_P2;PMS_P1;PMS_P2;Temp;Humidity;BMP_temperature;BMP_pressure;BME280_temperature;BME280_humidity;BME280_pressure;Samples;Min_cycle;Max_cycle;Signal;HPM_P1;HPM_P2
2022/09/21 00:00:42;;;;;;;9.97;5.60;;;8.00;99.90;;;;;;4994973;28;20172;-73
2022/09/21 00:03:08;;;;;;;6.20;5.60;;;8.00;99.90;;;;;;4994836;28;20263;-73
2022/09/21 00:05:34;;;;;;;9.13;5.40;;;7.80;99.90;;;;;;4993794;28;20267;-74
2022/09/21 00:08:05;;;;;;;5.80;5.17;;;7.90;99.90;;;;;;5031642;28;20198;-73
2022/09/21 00:10:31;;;;;;;7.73;4.87;;;7.80;99.90;;;;;;5033866;28;20629;-73
2022/09/21 00:12:57;;;;;;;6.07;4.97;;;7.80;99.90;;;;;;5018403;28;20207;-73
2022/09/21 00:15:24;;;;;;;6.40;4.80;;;7.80;99.90;;;;;;5013090;28;20554;-73
2022/09/21 00:17:52;;;;;;;5.43;4.67;;;7.80;99.90;;;;;;5014557;28;20294;-73
2022/09/21 00:20:20;;;;;;;5.07;4.40;;;7.60;99.90;;;;;;5014104;28;20253;-73
2022/09/21 00:22:47;;;;;;;5.27;4.80;;;7.60;99.90;;;;;;5014874;28;20160;-73
2022/09/21 00:25:14;;;;;;;6.37;4.80;;;7.60;99.90;;;;;;5014512;28;20714;-73
2022/09/21 00:27:40;;;;;;;5.17;4.77;;;7.60;99.90;;;;;;5007180;28;20188;-73
2022/09/21 00:30:06;;;;;;;5.87;4.50;;;7.50;99.90;;;;;;4992987;28;20302;-73
2022/09/21 00:32:35;;;;;;;5.10;4.60;;;7.50;99.90;;;;;;4995107;28;20185;-73
2022/09/21 00:35:02;;;;;;;5.37;4.87;;;7.40;99.90;;;;;;4994270;28;20181;-73
2022/09/21 00:37:28;;;;;;;6.80;4.80;;;7.50;99.90;;;;;;5021882;28;20222;-73
2022/09/21 00:39:54;;;;;;;6.17;4.93;;;7.40;99.90;;;;;;5032428;28;20203;-73
2022/09/21 00:42:34;;;;;;;5.20;4.50;;;7.30;99.90;;;;;;5022545;28;20202;-75
2022/09/21 00:45:00;;;;;;;5.03;4.60;;;7.20;99.90;;;;;;5014056;28;20195;-73
2022/09/21 00:47:39;;;;;;;5.40;4.93;;;7.10;99.90;;;;;;5014111;28;20176;-73
2022/09/21 00:50:15;;;;;;;6.77;4.53;;;7.20;99.90;;;;;;5012481;28;20199;-73
2022/09/21 00:52:43;;;;;;;5.63;5.13;;;7.30;99.90;;;;;;5016817;28;20184;-73
2022/09/21 00:55:16;;;;;;;8.17;4.47;;;7.30;99.90;;;;;;5018010;28;20183;-73
2022/09/21 00:57:42;;;;;;;5.20;4.70;;;7.30;99.90;;;;;;5012339;28;20208;-73
2022/09/21 01:00:09;;;;;;;5.70;5.10;;;7.30;99.90;;;;;;4997944;28;20210;-73
2022/09/21 01:02:36;;;;;;;5.57;5.07;;;7.30;99.90;;;;;;4998657;28;20184;-73
2022/09/21 01:05:05;;;;;;;11.60;5.50;;;7.30;99.90;;;;;;4998155;28;20180;-73
2022/09/21 01:07:34;;;;;;;5.97;5.33;;;7.30;99.90;;;;;;5027829;28;20189;-73
2022/09/21 01:10:04;;;;;;;6.57;5.50;;;7.30;99.90;;;;;;5036225;28;20209;-73
2022/09/21 01:12:38;;;;;;;6.63;5.93;;;7.40;99.90;;;;;;5023939;28;20270;-73
2022/09/21 01:15:22;;;;;;;8.77;5.90;;;7.40;99.90;;;;;;5016462;28;20190;-73
2022/09/21 01:18:25;;;;;;;9.00;6.40;;;7.40;99.90;;;;;;5016419;28;20203;-73
2022/09/21 01:21:20;;;;;;;6.43;5.83;;;7.30;99.90;;;;;;5016525;28;20176;-73
2022/09/21 01:24:22;;;;;;;9.90;6.97;;;7.30;99.90;;;;;;4948583;28;20240;-73
2022/09/21 01:27:03;;;;;;;6.93;5.80;;;7.30;99.90;;;;;;5016828;28;20191;-73
2022/09/21 01:29:41;;;;;;;8.93;6.50;;;7.30;99.90;;;;;;4997820;28;20206;-73
2022/09/21 01:32:24;;;;;;;6.63;5.93;;;7.30;99.90;;;;;;4996704;28;20180;-73
2022/09/21 01:35:02;;;;;;;6.37;5.70;;;7.20;99.90;;;;;;4997470;28;20173;-72
2022/09/21 01:37:37;;;;;;;10.03;5.93;;;7.20;99.90;;;;;;5026626;28;20237;-73
2022/09/21 01:40:10;;;;;;;13.03;6.73;;;7.10;99.90;;;;;;5035827;28;20202;-73
2022/09/21 01:42:39;;;;;;;9.43;6.50;;;7.00;99.90;;;;;;5022546;28;20286;-73
2022/09/21 01:45:07;;;;;;;9.50;5.73;;;7.00;99.90;;;;;;5017070;28;20180;-73
2022/09/21 01:47:38;;;;;;;7.60;5.63;;;7.00;99.90;;;;;;5015973;28;20199;-73
2022/09/21 01:50:08;;;;;;;6.37;5.77;;;7.00;99.90;;;;;;5017165;28;20196;-73
2022/09/21 01:53:06;;;;;;;6.67;5.73;;;7.00;99.90;;;;;;5017578;28;20184;-72
2022/09/21 01:55:50;;;;;;;7.50;5.50;;;7.00;99.90;;;;;;5018242;28;20690;-73
2022/09/21 01:58:16;;;;;;;6.13;5.53;;;6.90;99.90;;;;;;5005668;28;20213;-73
2022/09/21 02:00:48;;;;;;;6.03;5.43;;;6.90;99.90;;;;;;4996429;28;20654;-72
2022/09/21 02:03:29;;;;;;;6.10;5.50;;;6.90;99.90;;;;;;4996535;28;20165;-73
2022/09/21 02:05:56;;;;;;;9.87;5.90;;;6.80;99.90;;;;;;5001361;28;20606;-73
2022/09/21 02:08:25;;;;;;;5.90;5.30;;;6.70;99.90;;;;;;5036430;28;20178;-73
2022/09/21 02:10:52;;;;;;;11.30;5.17;;;6.70;99.90;;;;;;5037001;28;20179;-73
2022/09/21 02:13:24;;;;;;;5.60;5.10;;;6.70;99.90;;;;;;5017273;28;20195;-72
2022/09/21 02:16:09;;;;;;;9.20;5.33;;;6.70;99.90;;;;;;5015133;28;20261;-73
2022/09/21 02:18:56;;;;;;;6.07;5.20;;;6.60;99.90;;;;;;5016423;28;20195;-73
2022/09/21 02:21:32;;;;;;;6.13;5.53;;;6.70;99.90;;;;;;5016622;28;20179;-73
2022/09/21 02:24:09;;;;;;;8.20;5.77;;;6.70;99.90;;;;;;5016924;28;20160;-73
2022/09/21 02:26:44;;;;;;;9.37;4.80;;;6.70;99.90;;;;;;5015224;28;20193;-73
2022/09/21 02:29:21;;;;;;;5.53;5.10;;;6.70;99.90;;;;;;4998230;28;20243;-72
2022/09/21 02:32:09;;;;;;;6.00;5.03;;;6.60;99.90;;;;;;4995410;28;20259;-73
2022/09/21 02:34:49;;;;;;;6.80;5.37;;;6.70;99.90;;;;;;4995146;28;20618;-73
2022/09/21 02:37:30;;;;;;;5.80;5.30;;;6.70;99.90;;;;;;5022044;28;20230;-73
2022/09/21 02:40:30;;;;;;;7.93;5.40;;;6.60;99.90;;;;;;5034676;28;20639;-73
2022/09/21 02:43:02;;;;;;;9.47;5.03;;;6.60;99.90;;;;;;4986163;28;20191;-73
2022/09/21 02:45:34;;;;;;;5.13;4.73;;;6.60;99.90;;;;;;5015966;28;20214;-73
2022/09/21 02:48:12;;;;;;;10.40;5.27;;;6.50;99.90;;;;;;5014715;28;20587;-73
2022/09/21 02:50:49;;;;;;;5.20;4.60;;;6.50;99.90;;;;;;5015654;28;20164;-72
2022/09/21 02:53:24;;;;;;;4.83;4.50;;;6.40;99.90;;;;;;5015980;28;20226;-73
2022/09/21 02:55:51;;;;;;;5.33;4.83;;;6.50;99.90;;;;;;5016242;28;20271;-73
2022/09/21 02:58:20;;;;;;;9.93;5.10;;;6.50;99.90;;;;;;5004574;28;20264;-73
2022/09/21 03:00:45;;;;;;;6.93;5.17;;;6.40;99.90;;;;;;4994774;28;20190;-73
2022/09/21 03:03:30;;;;;;;5.10;4.70;;;6.40;99.90;;;;;;4996347;28;20271;-73
2022/09/21 03:05:56;;;;;;;6.73;5.33;;;6.40;99.90;;;;;;4999568;28;20161;-72
2022/09/21 03:08:21;;;;;;;11.23;5.57;;;6.40;99.90;;;;;;5035138;28;20662;-73
2022/09/21 03:10:48;;;;;;;20.37;6.07;;;6.30;99.90;;;;;;5035642;28;20179;-73
2022/09/21 03:13:14;;;;;;;5.00;4.60;;;6.30;99.90;;;;;;5016424;28;20659;-73
2022/09/21 03:15:40;;;;;;;10.13;5.50;;;6.30;99.90;;;;;;5013818;28;20278;-73
2022/09/21 03:18:09;;;;;;;9.27;5.87;;;6.30;99.90;;;;;;5015981;28;20182;-73
2022/09/21 03:20:35;;;;;;;7.07;5.07;;;6.20;99.90;;;;;;5015050;28;20175;-73
2022/09/21 03:23:01;;;;;;;7.47;5.47;;;6.20;99.90;;;;;;5014003;28;20176;-73
2022/09/21 03:25:28;;;;;;;8.07;5.37;;;6.20;99.90;;;;;;5015418;28;20717;-73
2022/09/21 03:27:54;;;;;;;7.13;5.27;;;6.30;99.90;;;;;;5007149;28;20192;-73
2022/09/21 03:30:25;;;;;;;5.40;5.00;;;6.20;99.90;;;;;;4994009;28;20551;-73
2022/09/21 03:32:52;;;;;;;8.37;5.57;;;6.30;99.90;;;;;;4994078;28;20198;-73
2022/09/21 03:35:20;;;;;;;9.00;5.20;;;6.30;99.90;;;;;;4995047;28;20267;-73
2022/09/21 03:37:47;;;;;;;8.00;5.40;;;6.30;99.90;;;;;;5027723;28;20213;-73
2022/09/21 03:40:13;;;;;;;12.17;5.63;;;6.20;99.90;;;;;;5033232;28;20256;-73
2022/09/21 03:42:40;;;;;;;8.23;5.50;;;6.20;99.90;;;;;;5020739;28;20652;-73
2022/09/21 03:45:07;;;;;;;24.63;6.40;;;6.20;99.90;;;;;;5013489;28;20179;-73
2022/09/21 03:47:33;;;;;;;11.80;5.93;;;6.20;99.90;;;;;;5013645;28;20202;-73
2022/09/21 03:49:59;;;;;;;21.40;6.83;;;6.20;99.90;;;;;;5014784;28;20319;-73
2022/09/21 03:52:25;;;;;;;24.17;6.90;;;6.10;99.90;;;;;;5014128;28;20226;-73
2022/09/21 03:54:51;;;;;;;11.20;6.73;;;6.10;99.90;;;;;;5013979;28;20183;-73
2022/09/21 03:57:17;;;;;;;5.93;5.30;;;6.10;99.90;;;;;;5011727;28;20204;-73
2022/09/21 03:59:43;;;;;;;10.23;5.67;;;6.10;99.90;;;;;;4993398;28;20243;-72
2022/09/21 04:02:08;;;;;;;8.57;5.17;;;6.10;99.90;;;;;;4993548;28;20196;-72
2022/09/21 04:04:34;;;;;;;8.43;5.23;;;6.10;99.90;;;;;;4994661;28;20260;-72
2022/09/21 04:07:00;;;;;;;6.87;5.93;;;6.20;99.90;;;;;;5016302;28;20266;-73
2022/09/21 04:09:26;;;;;;;8.27;5.73;;;6.20;99.90;;;;;;5034038;28;20594;-72
2022/09/21 04:11:52;;;;;;;6.27;5.70;;;6.20;99.90;;;;;;5025430;28;20233;-72
2022/09/21 04:14:19;;;;;;;5.97;5.33;;;6.10;99.90;;;;;;5014066;28;20211;-73
2022/09/21 04:16:45;;;;;;;7.70;6.10;;;6.10;99.90;;;;;;5013059;28;20203;-73
2022/09/21 04:19:11;;;;;;;6.93;5.70;;;6.10;99.90;;;;;;5012644;28;20203;-72
2022/09/21 04:21:37;;;;;;;7.20;5.87;;;6.10;99.90;;;;;;5012895;28;20176;-72
2022/09/21 04:24:03;;;;;;;8.03;6.17;;;6.10;99.90;;;;;;5014473;28;20179;-72
2022/09/21 04:26:34;;;;;;;16.17;6.30;;;6.10;99.90;;;;;;5013676;28;20188;-73
2022/09/21 04:29:00;;;;;;;16.73;6.30;;;6.10;99.90;;;;;;4996296;28;20216;-73
2022/09/21 04:31:27;;;;;;;12.17;6.70;;;6.10;99.90;;;;;;4992988;28;20212;-72
2022/09/21 04:33:55;;;;;;;9.47;6.13;;;6.00;99.90;;;;;;4994124;28;20184;-72
2022/09/21 04:36:22;;;;;;;8.07;5.83;;;6.00;99.90;;;;;;5020031;28;20210;-73
2022/09/21 04:38:49;;;;;;;10.53;6.03;;;5.90;99.90;;;;;;5033749;28;20549;-73
2022/09/21 04:41:15;;;;;;;6.67;6.07;;;5.90;99.90;;;;;;5031265;28;20187;-73
2022/09/21 04:43:42;;;;;;;7.03;5.93;;;6.00;99.90;;;;;;5014016;28;20720;-72
2022/09/21 04:46:11;;;;;;;10.33;6.57;;;6.00;99.90;;;;;;5012528;28;20557;-73
2022/09/21 04:48:38;;;;;;;14.37;6.37;;;6.00;99.90;;;;;;5013846;28;20210;-72
2022/09/21 04:51:06;;;;;;;9.63;6.17;;;6.00;99.90;;;;;;5012322;28;20656;-72
2022/09/21 04:53:33;;;;;;;6.57;5.73;;;6.00;99.90;;;;;;5012747;28;20192;-73
2022/09/21 04:55:59;;;;;;;10.43;6.67;;;5.90;99.90;;;;;;5013921;28;20214;-72
2022/09/21 04:58:25;;;;;;;13.53;6.60;;;5.90;99.90;;;;;;5001557;28;20216;-73
2022/09/21 05:00:52;;;;;;;9.97;6.80;;;6.00;99.90;;;;;;4994327;28;20168;-72
2022/09/21 05:03:18;;;;;;;8.23;6.40;;;6.00;99.90;;;;;;4993186;28;20649;-72
2022/09/21 05:05:48;;;;;;;7.63;6.40;;;6.00;99.90;;;;;;4994739;28;20703;-73
2022/09/21 05:08:16;;;;;;;7.93;5.93;;;6.00;99.90;;;;;;5032322;28;20179;-72
2022/09/21 05:10:43;;;;;;;7.67;6.60;;;6.00;99.90;;;;;;5033895;28;20253;-73
2022/09/21 05:13:09;;;;;;;9.50;6.73;;;6.00;99.90;;;;;;5015904;28;20628;-72
2022/09/21 05:15:38;;;;;;;8.10;6.60;;;6.00;99.90;;;;;;5012894;28;20582;-72
2022/09/21 05:18:04;;;;;;;8.23;6.90;;;6.00;99.90;;;;;;5014291;28;20225;-73
2022/09/21 05:20:29;;;;;;;8.10;6.50;;;5.90;99.90;;;;;;5012161;28;20195;-73
2022/09/21 05:23:00;;;;;;;7.57;6.10;;;5.90;99.90;;;;;;5014117;28;20200;-72
2022/09/21 05:25:26;;;;;;;6.53;5.93;;;5.90;99.90;;;;;;5014154;28;20194;-73
2022/09/21 05:27:51;;;;;;;6.80;6.20;;;5.90;99.90;;;;;;5006061;28;20653;-73
2022/09/21 05:30:18;;;;;;;9.30;6.70;;;5.90;99.90;;;;;;4992952;28;20241;-72
2022/09/21 05:32:48;;;;;;;7.90;6.60;;;5.90;99.90;;;;;;4993672;28;20187;-72
2022/09/21 05:35:53;;;;;;;7.00;5.90;;;5.90;99.90;;;;;;4993829;28;20581;-72
2022/09/21 05:38:19;;;;;;;6.63;5.93;;;5.80;99.90;;;;;;4994264;28;20176;-72
2022/09/21 05:40:49;;;;;;;10.20;6.23;;;5.80;99.90;;;;;;4996204;28;20285;-73
2022/09/21 05:43:15;;;;;;;7.30;6.03;;;5.80;99.90;;;;;;5014775;28;20188;-72
2022/09/21 05:45:45;;;;;;;12.67;6.43;;;5.80;99.90;;;;;;5017038;28;20183;-73
2022/09/21 05:48:20;;;;;;;11.80;6.40;;;5.70;99.90;;;;;;5017516;28;20174;-72
2022/09/21 05:50:55;;;;;;;6.60;6.00;;;5.70;99.90;;;;;;5017197;28;20160;-72
2022/09/21 05:53:44;;;;;;;7.20;6.47;;;5.70;99.90;;;;;;5017097;28;20159;-72
2022/09/21 05:56:38;;;;;;;8.77;6.63;;;5.70;99.90;;;;;;5017488;28;20188;-72
2022/09/21 05:59:33;;;;;;;12.20;6.83;;;5.80;99.90;;;;;;4998605;28;20741;-72
2022/09/21 06:02:46;;;;;;;15.93;7.67;;;5.80;99.90;;;;;;4997317;28;20165;-72
2022/09/21 06:05:14;;;;;;;18.53;7.53;;;5.80;99.90;;;;;;4969830;28;20312;-73
2022/09/21 06:07:40;;;;;;;17.07;7.70;;;5.70;99.90;;;;;;5029205;28;20179;-72
2022/09/21 06:10:11;;;;;;;27.97;7.67;;;5.70;99.90;;;;;;5036680;28;20221;-72
2022/09/21 06:12:37;;;;;;;10.93;7.77;;;5.60;99.90;;;;;;5022041;28;20238;-72
2022/09/21 06:15:04;;;;;;;14.60;7.70;;;5.60;99.90;;;;;;5016794;28;20184;-73
2022/09/21 06:17:32;;;;;;;9.43;6.73;;;5.70;99.90;;;;;;5015573;28;20199;-72
2022/09/21 06:19:58;;;;;;;8.43;7.13;;;5.70;99.90;;;;;;5016647;28;20200;-71
2022/09/21 06:22:24;;;;;;;8.03;7.17;;;5.80;99.90;;;;;;5017476;28;20172;-72
2022/09/21 06:24:49;;;;;;;12.93;7.33;;;5.80;99.90;;;;;;5016463;28;20230;-73
2022/09/21 06:27:15;;;;;;;20.60;8.17;;;5.90;99.90;;;;;;5013276;28;20176;-71
2022/09/21 06:29:41;;;;;;;8.17;7.37;;;5.80;99.90;;;;;;4997006;28;20200;-72
2022/09/21 06:32:06;;;;;;;10.60;6.77;;;5.80;99.90;;;;;;4997264;28;20645;-71
2022/09/21 06:34:32;;;;;;;9.00;7.20;;;5.80;99.90;;;;;;4996990;28;20181;-72
2022/09/21 06:36:58;;;;;;;8.40;7.50;;;5.90;99.90;;;;;;5016210;28;20203;-71
2022/09/21 06:39:23;;;;;;;11.10;7.37;;;6.00;99.90;;;;;;5036075;28;20227;-71
2022/09/21 06:41:51;;;;;;;8.50;7.57;;;6.00;99.90;;;;;;5027900;28;20183;-71
2022/09/21 06:44:16;;;;;;;10.97;7.87;;;6.10;99.90;;;;;;5016263;28;20172;-71
2022/09/21 06:46:42;;;;;;;9.67;8.23;;;6.20;99.90;;;;;;5016091;28;20238;-72
2022/09/21 06:49:08;;;;;;;16.63;8.20;;;6.20;99.90;;;;;;5014445;28;20207;-71
2022/09/21 06:51:35;;;;;;;9.97;8.20;;;6.20;99.90;;;;;;5014589;28;20209;-71
2022/09/21 06:54:01;;;;;;;11.93;7.87;;;6.20;99.90;;;;;;5014899;28;20214;-71
2022/09/21 06:56:26;;;;;;;12.93;8.17;;;6.10;99.90;;;;;;5015856;28;20254;-71
2022/09/21 06:58:52;;;;;;;13.10;8.40;;;6.10;99.90;;;;;;5000404;28;20252;-71
2022/09/21 07:01:18;;;;;;;14.50;8.27;;;6.20;99.90;;;;;;4996025;28;20214;-72
2022/09/21 07:03:47;;;;;;;11.40;8.60;;;6.10;99.90;;;;;;4994867;28;20176;-71
2022/09/21 07:06:14;;;;;;;11.63;9.03;;;6.10;99.90;;;;;;5003138;28;20187;-72
2022/09/21 07:08:41;;;;;;;11.63;9.10;;;6.10;99.90;;;;;;5034408;28;20199;-71
2022/09/21 07:11:07;;;;;;;13.17;8.37;;;6.10;99.90;;;;;;5033002;28;20528;-71
2022/09/21 07:13:34;;;;;;;13.97;10.10;;;6.20;99.90;;;;;;5015998;28;20186;-71
2022/09/21 07:16:06;;;;;;;12.60;9.50;;;6.20;99.90;;;;;;5015781;28;20178;-70
2022/09/21 07:18:39;;;;;;;18.30;10.23;;;6.20;99.90;;;;;;5014272;28;20207;-71
2022/09/21 07:21:06;;;;;;;11.20;8.93;;;6.40;99.90;;;;;;5015328;28;20160;-71
2022/09/21 07:23:32;;;;;;;11.83;9.93;;;6.40;99.90;;;;;;5015653;28;20160;-71
2022/09/21 07:26:10;;;;;;;10.93;8.47;;;6.50;99.90;;;;;;5014176;28;20648;-71
2022/09/21 07:28:36;;;;;;;13.57;9.47;;;6.60;99.90;;;;;;5000601;28;20234;-71
2022/09/21 07:31:10;;;;;;;11.97;9.13;;;6.80;99.90;;;;;;4995895;28;20172;-71
2022/09/21 07:33:36;;;;;;;15.07;10.13;;;7.00;99.90;;;;;;4995466;28;20203;-71
2022/09/21 07:36:08;;;;;;;23.20;10.77;;;7.10;99.90;;;;;;5000139;28;20740;-71
2022/09/21 07:38:35;;;;;;;13.13;9.47;;;7.20;99.90;;;;;;5035740;28;20281;-71
2022/09/21 07:41:02;;;;;;;11.50;9.00;;;7.30;99.90;;;;;;5035155;28;20167;-71
2022/09/21 07:43:28;;;;;;;11.47;9.20;;;7.20;99.90;;;;;;5014010;28;20175;-71
2022/09/21 07:45:57;;;;;;;10.23;9.00;;;7.30;99.90;;;;;;5015422;28;20163;-71
2022/09/21 07:48:24;;;;;;;12.60;8.83;;;7.40;99.90;;;;;;5014044;28;20644;-71
2022/09/21 07:50:49;;;;;;;13.53;10.13;;;7.50;99.90;;;;;;5014779;28;20178;-71
2022/09/21 07:53:16;;;;;;;13.57;10.43;;;7.80;99.90;;;;;;5013639;28;20176;-71
2022/09/21 07:55:43;;;;;;;14.37;10.17;;;8.00;99.90;;;;;;5015066;28;20206;-71
2022/09/21 08:00:53;;;;;;;10.93;9.07;;;8.20;99.90;;;;;;4994675;28;20303;-71
2022/09/21 08:03:19;;;;;;;9.93;8.60;;;8.50;99.90;;;;;;4994922;28;20204;-71
2022/09/21 08:05:45;;;;;;;11.33;8.23;;;8.90;99.90;;;;;;4995763;28;20184;-71
2022/09/21 08:08:11;;;;;;;9.03;7.53;;;8.90;99.90;;;;;;5034574;28;20603;-71
2022/09/21 08:10:36;;;;;;;8.80;7.20;;;9.10;99.90;;;;;;5034423;28;20179;-71
2022/09/21 08:13:02;;;;;;;6.70;6.07;;;9.10;99.90;;;;;;5017397;28;20176;-71
2022/09/21 08:15:28;;;;;;;8.00;6.70;;;9.00;99.90;;;;;;5014740;28;20258;-71
2022/09/21 08:17:54;;;;;;;7.27;6.57;;;9.10;99.90;;;;;;5013379;28;20210;-71
2022/09/21 08:20:20;;;;;;;9.13;6.67;;;9.50;99.90;;;;;;5012892;28;20231;-71
2022/09/21 08:22:46;;;;;;;7.10;6.37;;;9.70;99.90;;;;;;5013131;28;20527;-71
2022/09/21 08:25:12;;;;;;;7.40;6.27;;;9.90;99.90;;;;;;5013088;28;20267;-71
2022/09/21 08:27:39;;;;;;;7.40;6.30;;;9.90;99.90;;;;;;5007466;28;20226;-71
2022/09/21 08:30:06;;;;;;;6.67;5.90;;;10.00;99.90;;;;;;4993432;28;20614;-71
2022/09/21 08:32:32;;;;;;;6.80;6.10;;;10.10;99.90;;;;;;4994851;28;20180;-71
2022/09/21 08:34:58;;;;;;;8.43;6.10;;;10.30;99.90;;;;;;4994951;28;20185;-71
2022/09/21 08:37:24;;;;;;;8.13;6.33;;;10.40;99.90;;;;;;5022033;28;20195;-71
2022/09/21 08:39:50;;;;;;;6.67;5.97;;;10.60;99.90;;;;;;5033858;28;20270;-71
2022/09/21 08:42:24;;;;;;;6.30;5.70;;;10.90;99.90;;;;;;5023258;28;20203;-71
2022/09/21 08:44:55;;;;;;;5.87;5.33;;;11.00;99.90;;;;;;5013991;28;20178;-71
2022/09/21 08:48:02;;;;;;;6.70;6.00;;;11.10;99.90;;;;;;5012729;28;20660;-71
2022/09/21 08:50:40;;;;;;;7.67;6.07;;;11.20;99.90;;;;;;5010845;28;20684;-70
2022/09/21 08:53:20;;;;;;;6.87;5.57;;;11.50;99.90;;;;;;5014249;28;20529;-71
2022/09/21 08:55:46;;;;;;;7.50;5.90;;;11.70;99.90;;;;;;5013858;28;20179;-70
2022/09/21 08:58:41;;;;;;;9.00;5.53;;;11.90;99.90;;;;;;5004157;28;20237;-71
2022/09/21 09:01:34;;;;;;;6.17;5.30;;;12.10;99.90;;;;;;4993039;28;20207;-70
2022/09/21 09:04:21;;;;;;;6.03;5.43;;;12.20;99.90;;;;;;4994872;28;20196;-70
2022/09/21 09:07:02;;;;;;;5.97;5.37;;;12.30;99.90;;;;;;5011804;28;20583;-70
2022/09/21 09:09:34;;;;;;;9.23;4.93;;;12.50;99.90;;;;;;5032278;28;20265;-70
2022/09/21 09:12:15;;;;;;;6.70;5.40;;;12.80;99.90;;;;;;5025128;28;20183;-70
2022/09/21 09:14:43;;;;;;;5.87;4.60;;;13.00;99.90;;;;;;5016390;28;20176;-71
2022/09/21 09:17:47;;;;;;;7.47;4.67;;;13.30;99.90;;;;;;5017646;28;20270;-70
2022/09/21 09:20:14;;;;;;;6.53;4.72;;;13.50;99.90;;;;;;4976606;28;20210;-70
2022/09/21 09:22:45;;;;;;;6.45;4.25;;;13.70;99.90;;;;;;5017629;28;20176;-70
2022/09/21 09:25:23;;;;;;;8.98;4.88;;;13.90;99.90;;;;;;5016256;28;20262;-70
2022/09/21 09:27:58;;;;;;;7.55;4.55;;;13.80;99.90;;;;;;5017590;28;20651;-70
2022/09/21 09:30:26;;;;;;;5.47;4.63;;;13.90;99.90;;;;;;5017573;28;20199;-71
2022/09/21 09:33:05;;;;;;;8.95;4.47;;;13.90;99.90;;;;;;5017733;28;20176;-70
2022/09/21 09:35:52;;;;;;;6.43;4.13;;;14.00;99.90;;;;;;5016487;28;20186;-71
2022/09/21 09:38:38;;;;;;;4.18;3.78;;;14.00;99.90;;;;;;4998360;28;20193;-71
2022/09/21 09:41:21;;;;;;;9.63;3.80;;;14.10;99.90;;;;;;4998430;28;20283;-71
2022/09/21 09:44:15;;;;;;;8.43;3.60;;;14.30;99.90;;;;;;5016008;28;20180;-70
2022/09/21 09:47:22;;;;;;;4.07;3.40;;;14.30;99.90;;;;;;5016974;28;20161;-71
2022/09/21 09:50:26;;;;;;;6.57;3.25;;;14.50;99.90;;;;;;5008932;28;20262;-70
2022/09/21 09:53:05;;;;;;;5.15;3.45;;;14.60;99.90;;;;;;5016867;28;20206;-70
2022/09/21 09:55:37;;;;;;;6.25;3.17;;;14.60;99.90;;;;;;5017383;28;20160;-71
2022/09/21 09:58:03;;;;;;;6.88;3.10;;;14.70;99.90;;;;;;5008282;28;20243;-71
2022/09/21 10:00:29;;;;;;;7.32;2.90;;;14.70;99.90;;;;;;4996261;28;20574;-71
2022/09/21 10:02:57;;;;;;;4.13;3.00;;;14.80;99.90;;;;;;4996160;28;20177;-71
2022/09/21 10:05:37;;;;;;;5.90;3.22;;;14.80;99.90;;;;;;4997015;28;20200;-71
2022/09/21 10:08:03;;;;;;;5.88;3.17;;;14.80;99.90;;;;;;5035383;28;20190;-71
2022/09/21 10:10:31;;;;;;;3.70;2.80;;;14.80;99.90;;;;;;5036457;28;20202;-71
2022/09/21 10:13:28;;;;;;;5.53;3.17;;;14.90;99.90;;;;;;5018916;28;20263;-71
2022/09/21 10:15:58;;;;;;;6.68;3.13;;;15.00;99.90;;;;;;5015335;28;20211;-71
2022/09/21 10:18:32;;;;;;;4.13;2.80;;;15.00;99.90;;;;;;5016566;28;20226;-71
2022/09/21 10:21:23;;;;;;;3.47;3.00;;;15.10;99.90;;;;;;5016514;28;20175;-71
2022/09/21 10:23:51;;;;;;;7.25;2.40;;;15.20;99.90;;;;;;5014356;28;20168;-70
2022/09/21 10:26:18;;;;;;;3.60;2.60;;;15.20;99.90;;;;;;5016544;28;20230;-71
2022/09/21 10:29:25;;;;;;;3.92;2.58;;;15.30;99.90;;;;;;5000858;28;20274;-71
2022/09/21 10:32:01;;;;;;;3.30;2.85;;;15.40;99.90;;;;;;4981147;28;20200;-71
2022/09/21 10:34:30;;;;;;;4.43;2.70;;;15.40;99.90;;;;;;4997152;28;20640;-71
2022/09/21 10:36:58;;;;;;;3.15;2.85;;;15.50;99.90;;;;;;5016542;28;20225;-71
2022/09/21 10:39:30;;;;;;;5.95;3.15;;;15.60;99.90;;;;;;5036775;28;20201;-71
2022/09/21 10:42:16;;;;;;;4.15;2.60;;;15.60;99.90;;;;;;5026842;28;20187;-71
2022/09/21 10:44:48;;;;;;;5.00;2.60;;;15.60;99.90;;;;;;5016458;28;20519;-71
2022/09/21 10:47:30;;;;;;;3.78;2.67;;;15.70;99.90;;;;;;5016088;28;20165;-71
2022/09/21 10:49:59;;;;;;;2.45;2.20;;;15.80;99.90;;;;;;5016232;28;20250;-71
2022/09/21 10:52:33;;;;;;;2.45;2.30;;;16.00;99.90;;;;;;5015904;28;20191;-71
2022/09/21 10:54:59;;;;;;;3.47;2.33;;;16.30;99.90;;;;;;5016600;28;20195;-71
2022/09/21 10:57:26;;;;;;;7.53;2.70;;;16.40;99.90;;;;;;5012624;28;20676;-71
2022/09/21 10:59:52;;;;;;;4.18;2.67;;;16.60;99.90;;;;;;4996189;28;20212;-71
2022/09/21 11:02:37;;;;;;;4.70;2.22;;;16.80;99.90;;;;;;4996329;28;20176;-71
2022/09/21 11:05:06;;;;;;;4.28;2.20;;;17.10;99.90;;;;;;4996393;28;20513;-71
2022/09/21 11:07:51;;;;;;;3.20;2.20;;;17.20;99.90;;;;;;5026306;28;20191;-69
2022/09/21 11:10:22;;;;;;;3.75;2.40;;;17.60;99.90;;;;;;5034170;28;20203;-69
2022/09/21 11:13:08;;;;;;;2.25;2.10;;;17.80;99.90;;;;;;5019494;28;20676;-69
2022/09/21 11:15:44;;;;;;;3.75;2.30;;;17.80;99.90;;;;;;5014301;28;20218;-70
2022/09/21 11:18:48;;;;;;;4.57;2.28;;;17.90;99.90;;;;;;5014418;28;20238;-71
2022/09/21 11:21:16;;;;;;;3.10;2.20;;;18.10;99.90;;;;;;4985174;28;20228;-71
2022/09/21 11:24:21;;;;;;;3.47;2.17;;;18.20;99.90;;;;;;5015413;28;20176;-71
2022/09/21 11:26:55;;;;;;;4.60;2.33;;;18.40;99.90;;;;;;5015920;28;20688;-71
2022/09/21 11:29:31;;;;;;;6.25;2.50;;;18.60;99.90;;;;;;4995049;28;20200;-71
2022/09/21 11:32:21;;;;;;;2.40;2.20;;;18.50;99.90;;;;;;5011080;28;20180;-71
2022/09/21 11:35:08;;;;;;;3.97;2.55;;;18.60;99.90;;;;;;4994171;28;20280;-71
2022/09/21 11:37:37;;;;;;;7.10;2.92;;;18.50;99.90;;;;;;5025840;28;20285;-71
2022/09/21 11:40:41;;;;;;;5.28;2.92;;;18.50;99.90;;;;;;5034882;28;20590;-71
2022/09/21 11:43:29;;;;;;;4.72;2.50;;;18.60;99.90;;;;;;5017646;28;20179;-71
2022/09/21 11:46:41;;;;;;;4.03;2.15;;;18.40;99.90;;;;;;5017281;28;20223;-71
2022/09/21 11:49:33;;;;;;;3.75;2.35;;;18.30;99.90;;;;;;4935674;29;20663;-71
2022/09/21 11:52:37;;;;;;;4.70;2.38;;;18.20;99.90;;;;;;5015143;28;20219;-71
2022/09/21 11:55:33;;;;;;;7.22;2.22;;;18.40;99.90;;;;;;5015165;28;20259;-71
2022/09/21 11:58:24;;;;;;;3.90;2.22;;;18.50;99.90;;;;;;5005495;28;20204;-71
2022/09/21 12:01:28;;;;;;;3.00;2.05;;;18.60;99.90;;;;;;4995146;28;20161;-71
2022/09/21 12:04:15;;;;;;;3.33;2.28;;;18.40;99.90;;;;;;5010474;28;20679;-71
2022/09/21 12:06:50;;;;;;;4.15;2.30;;;18.00;99.90;;;;;;5011094;28;20317;-71
2022/09/21 12:09:37;;;;;;;4.38;2.20;;;17.50;99.90;;;;;;5034359;28;20195;-71
2022/09/21 12:12:14;;;;;;;4.10;2.78;;;16.90;99.90;;;;;;5025982;28;20225;-71
2022/09/21 12:15:05;;;;;;;5.03;2.10;;;16.70;99.90;;;;;;5015626;28;20660;-71
2022/09/21 12:17:57;;;;;;;3.38;2.42;;;16.70;99.90;;;;;;5015211;28;20691;-73
2022/09/21 12:20:41;;;;;;;5.80;2.70;;;17.20;99.90;;;;;;5013239;28;20200;-72
2022/09/21 12:23:20;;;;;;;5.15;2.50;;;17.80;99.90;;;;;;5015083;28;20167;-73
2022/09/21 12:25:50;;;;;;;5.30;2.47;;;18.40;99.90;;;;;;5015626;28;20163;-73
2022/09/21 12:28:22;;;;;;;2.45;2.10;;;18.90;99.90;;;;;;5004372;28;20188;-73
2022/09/21 12:30:56;;;;;;;2.53;2.30;;;19.50;99.90;;;;;;4995438;28;20180;-73
2022/09/21 12:33:39;;;;;;;2.95;2.13;;;19.70;99.90;;;;;;4994168;28;20200;-73
2022/09/21 12:36:23;;;;;;;5.43;2.28;;;19.90;99.90;;;;;;5001237;28;20179;-73
2022/09/21 12:39:02;;;;;;;3.05;1.83;;;20.10;99.90;;;;;;5034733;28;20521;-73
2022/09/21 12:41:41;;;;;;;2.28;1.85;;;20.50;99.90;;;;;;5029049;28;20190;-71
2022/09/21 12:44:27;;;;;;;2.35;2.08;;;20.60;99.90;;;;;;5014810;28;20170;-71
2022/09/21 12:47:08;;;;;;;2.03;1.80;;;20.10;99.90;;;;;;5014308;28;20167;-72
2022/09/21 12:49:42;;;;;;;3.70;1.85;;;20.00;99.90;;;;;;5015324;28;20195;-73
2022/09/21 12:52:13;;;;;;;3.15;1.88;;;20.20;99.90;;;;;;5014386;28;20163;-72
2022/09/21 12:54:51;;;;;;;2.50;1.83;;;20.40;99.90;;;;;;5013791;28;20183;-72
2022/09/21 12:57:56;;;;;;;4.07;2.00;;;20.50;99.90;;;;;;5011160;28;20196;-72
2022/09/21 13:00:26;;;;;;;2.25;1.70;;;20.70;99.90;;;;;;4994897;28;20211;-72
2022/09/21 13:03:07;;;;;;;1.90;1.52;;;20.90;99.90;;;;;;4995709;28;20168;-72
2022/09/21 13:05:49;;;;;;;1.92;1.60;;;21.20;99.90;;;;;;4995707;28;20174;-72
2022/09/21 13:08:37;;;;;;;1.95;1.40;;;21.40;99.90;;;;;;5015785;28;20160;-72
2022/09/21 13:11:06;;;;;;;2.92;1.55;;;21.40;99.90;;;;;;5015128;28;20159;-72
2022/09/21 13:13:50;;;;;;;3.67;1.90;;;20.70;99.90;;;;;;5013601;28;20180;-72
2022/09/21 13:16:27;;;;;;;2.20;1.70;;;20.50;99.90;;;;;;5012914;28;20626;-72
2022/09/21 13:19:15;;;;;;;2.80;1.88;;;19.70;99.90;;;;;;5014203;28;20286;-71
2022/09/21 13:21:43;;;;;;;3.70;1.92;;;19.20;99.90;;;;;;5013710;28;20161;-72
2022/09/21 13:24:26;;;;;;;2.13;1.70;;;18.80;99.90;;;;;;5014877;28;20534;-72
2022/09/21 13:26:55;;;;;;;3.45;1.90;;;19.20;99.90;;;;;;5012410;28;20255;-72